createdAt,value
2018-12-26T00:00:17.081Z,0
2018-12-26T00:01:19.283Z,0
2018-12-26T00:02:19.601Z,0
2018-12-26T00:03:20.569Z,0
2018-12-26T00:04:21.535Z,0
2018-12-26T00:05:22.367Z,0
2018-12-26T00:06:21.953Z,0
2018-12-26T00:07:22.358Z,0
2018-12-26T00:08:23.197Z,0
2018-12-26T00:09:24.715Z,0
2018-12-26T00:10:25.468Z,0
2018-12-26T00:11:26.151Z,0
2018-12-26T00:12:26.282Z,0
2018-12-26T00:13:28.017Z,0
2018-12-26T00:14:28.707Z,0
2018-12-26T00:15:28.967Z,0
2018-12-26T00:16:29.660Z,0
2018-12-26T00:17:30.624Z,0
2018-12-26T00:18:32.039Z,0
2018-12-26T00:19:33.704Z,0
2018-12-26T00:20:34.011Z,0
2018-12-26T00:21:34.701Z,0
2018-12-26T00:22:34.831Z,0
2018-12-26T00:23:35.517Z,0
2018-12-26T00:24:35.975Z,0
2018-12-26T00:25:37.382Z,0
2018-12-26T00:26:38.692Z,0
2018-12-26T00:27:38.375Z,0
2018-12-26T00:28:38.912Z,0
2018-12-26T00:29:39.049Z,0
2018-12-26T00:30:40.175Z,0
2018-12-26T00:31:41.316Z,0
2018-12-26T00:32:42.281Z,0
2018-12-26T00:33:43.244Z,0
2018-12-26T00:34:43.468Z,0
2018-12-26T00:35:43.598Z,0
2018-12-26T00:36:45.116Z,0
2018-12-26T00:37:45.803Z,0
2018-12-26T00:38:46.615Z,0
2018-12-26T00:39:49.435Z,0
2018-12-26T00:40:47.579Z,0
2018-12-26T00:41:49.275Z,0
2018-12-26T00:42:49.739Z,0
2018-12-26T00:43:50.703Z,0
2018-12-26T00:44:51.387Z,0
2018-12-26T00:45:51.793Z,0
2018-12-26T00:46:52.202Z,0
2018-12-26T00:47:53.180Z,0
2018-12-26T00:48:53.643Z,0
2018-12-26T00:49:55.062Z,0
2018-12-26T00:50:55.788Z,0
2018-12-26T00:51:56.477Z,0
2018-12-26T00:52:57.612Z,0
2018-12-26T00:53:59.023Z,0
2018-12-26T00:54:59.985Z,0
2018-12-26T00:56:00.673Z,0
2018-12-26T00:57:00.805Z,0
2018-12-26T00:58:01.490Z,0
2018-12-26T00:59:01.879Z,0
2018-12-26T01:00:02.841Z,0
2018-12-26T01:01:02.971Z,0
2018-12-26T01:02:04.100Z,0
2018-12-26T01:03:05.509Z,0
2018-12-26T01:04:06.196Z,0
2018-12-26T01:05:06.602Z,0
2018-12-26T01:06:07.012Z,0
2018-12-26T01:07:07.702Z,0
2018-12-26T01:08:07.828Z,0
2018-12-26T01:09:08.091Z,0
2018-12-26T01:10:08.624Z,0
2018-12-26T01:11:09.307Z,0
2018-12-26T01:12:09.715Z,0
2018-12-26T01:13:10.845Z,0
2018-12-26T01:14:11.530Z,0
2018-12-26T01:15:12.771Z,0
2018-12-26T01:16:12.900Z,0
2018-12-26T01:17:14.309Z,0
2018-12-26T01:18:14.438Z,0
2018-12-26T01:19:14.695Z,0
2018-12-26T01:20:16.107Z,0
2018-12-26T01:21:17.347Z,0
2018-12-26T01:22:17.847Z,0
2018-12-26T01:23:18.543Z,0
2018-12-26T01:24:19.947Z,0
2018-12-26T01:25:20.909Z,0
2018-12-26T01:26:21.312Z,0
2018-12-26T01:27:22.713Z,0
2018-12-26T01:28:23.403Z,0
2018-12-26T01:29:25.064Z,0
2018-12-26T01:30:25.043Z,0
2018-12-26T01:31:25.448Z,0
2018-12-26T01:32:26.847Z,0
2018-12-26T01:33:27.529Z,0
2018-12-26T01:34:28.961Z,0
2018-12-26T01:35:29.365Z,0
2018-12-26T01:36:29.769Z,0
2018-12-26T01:37:30.895Z,0
2018-12-26T01:38:31.854Z,0
2018-12-26T01:39:33.211Z,0
2018-12-26T01:40:34.171Z,0
2018-12-26T01:41:34.576Z,0
2018-12-26T01:42:34.981Z,0
2018-12-26T01:43:35.107Z,0
2018-12-26T01:44:36.787Z,0
2018-12-26T01:45:36.914Z,0
2018-12-26T01:46:37.320Z,0
2018-12-26T01:47:38.726Z,0
2018-12-26T01:48:39.237Z,0
2018-12-26T01:49:39.773Z,0
2018-12-26T01:50:40.898Z,0
2018-12-26T01:51:42.580Z,0
2018-12-26T01:52:42.706Z,0
2018-12-26T01:53:43.765Z,0
2018-12-26T01:54:43.731Z,0
2018-12-26T01:55:44.420Z,0
2018-12-26T01:56:44.849Z,0
2018-12-26T01:57:46.531Z,0
2018-12-26T01:58:47.215Z,0
2018-12-26T01:59:48.297Z,0
2018-12-26T02:00:48.716Z,0
2018-12-26T02:01:49.689Z,0
2018-12-26T02:02:50.375Z,0
2018-12-26T02:03:50.534Z,0
2018-12-26T02:04:50.937Z,0
2018-12-26T02:05:52.343Z,0
2018-12-26T02:06:52.748Z,0
2018-12-26T02:07:54.166Z,0
2018-12-26T02:08:55.572Z,0
2018-12-26T02:09:56.678Z,0
2018-12-26T02:10:56.913Z,0
2018-12-26T02:11:57.318Z,0
2018-12-26T02:12:57.725Z,0
2018-12-26T02:13:58.404Z,0
2018-12-26T02:14:59.364Z,0
2018-12-26T02:16:00.044Z,0
2018-12-26T02:17:00.282Z,0
2018-12-26T02:18:00.688Z,0
2018-12-26T02:19:02.368Z,0
2018-12-26T02:20:03.215Z,0
2018-12-26T02:21:04.452Z,0
2018-12-26T02:22:04.909Z,0
2018-12-26T02:23:05.591Z,0
2018-12-26T02:24:06.276Z,0
2018-12-26T02:25:07.075Z,0
2018-12-26T02:26:07.765Z,0
2018-12-26T02:27:08.175Z,0
2018-12-26T02:28:09.135Z,0
2018-12-26T02:29:09.815Z,0
2018-12-26T02:30:11.459Z,0
2018-12-26T02:31:12.000Z,0
2018-12-26T02:32:13.531Z,0
2018-12-26T02:33:13.497Z,0
2018-12-26T02:34:13.637Z,0
2018-12-26T02:35:15.435Z,0
2018-12-26T02:36:15.122Z,0
2018-12-26T02:37:16.088Z,0
2018-12-26T02:38:16.229Z,0
2018-12-26T02:39:16.741Z,0
2018-12-26T02:40:17.398Z,0
2018-12-26T02:41:18.082Z,0
2018-12-26T02:42:18.866Z,0
2018-12-26T02:43:19.548Z,0
2018-12-26T02:44:20.790Z,0
2018-12-26T02:45:20.754Z,0
2018-12-26T02:46:20.997Z,0
2018-12-26T02:47:21.686Z,0
2018-12-26T02:48:22.376Z,0
2018-12-26T02:49:22.059Z,0
2018-12-26T02:50:23.160Z,0
2018-12-26T02:51:23.685Z,0
2018-12-26T02:52:24.364Z,0
2018-12-26T02:53:25.148Z,0
2018-12-26T02:54:25.394Z,0
2018-12-26T02:55:26.358Z,0
2018-12-26T02:56:27.320Z,0
2018-12-26T02:57:28.307Z,0
2018-12-26T02:58:28.440Z,0
2018-12-26T02:59:29.140Z,0
2018-12-26T03:00:29.847Z,0
2018-12-26T03:01:30.105Z,0
2018-12-26T03:02:30.068Z,0
2018-12-26T03:03:31.861Z,0
2018-12-26T03:04:33.348Z,0
2018-12-26T03:05:32.768Z,0
2018-12-26T03:06:33.892Z,0
2018-12-26T03:07:35.857Z,0
2018-12-26T03:08:36.236Z,0
2018-12-26T03:09:36.217Z,0
2018-12-26T03:10:37.323Z,0
2018-12-26T03:11:37.607Z,0
2018-12-26T03:12:38.850Z,0
2018-12-26T03:13:39.225Z,0
2018-12-26T03:14:39.625Z,0
2018-12-26T03:15:40.331Z,0
2018-12-26T03:16:41.298Z,0
2018-12-26T03:17:41.011Z,0
2018-12-26T03:18:41.423Z,0
2018-12-26T03:19:43.330Z,0
2018-12-26T03:20:43.439Z,0
2018-12-26T03:21:44.678Z,0
2018-12-26T03:22:44.642Z,0
2018-12-26T03:23:45.602Z,0
2018-12-26T03:24:46.838Z,0
2018-12-26T03:25:47.800Z,0
2018-12-26T03:27:00.867Z,0
2018-12-26T03:28:01.547Z,0
2018-12-26T03:29:03.062Z,0
2018-12-26T03:30:03.921Z,0
2018-12-26T03:31:03.902Z,0
2018-12-26T03:32:05.754Z,0
2018-12-26T03:33:06.586Z,0
2018-12-26T03:34:05.997Z,0
2018-12-26T03:35:06.467Z,0
2018-12-26T03:36:07.433Z,0
2018-12-26T03:37:08.404Z,0
2018-12-26T03:38:09.075Z,0
2018-12-26T03:39:09.582Z,0
2018-12-26T03:40:09.988Z,0
2018-12-26T03:41:11.102Z,0
2018-12-26T03:42:11.789Z,0
2018-12-26T03:43:13.052Z,0
2018-12-26T03:44:13.018Z,0
2018-12-26T03:45:13.535Z,0
2018-12-26T03:46:14.218Z,0
2018-12-26T03:47:15.361Z,0
2018-12-26T03:48:16.495Z,0
2018-12-26T03:49:17.758Z,0
2018-12-26T03:50:17.723Z,0
2018-12-26T03:51:18.958Z,0
2018-12-26T03:52:19.479Z,0
2018-12-26T03:53:19.157Z,0
2018-12-26T03:54:20.398Z,0
2018-12-26T03:55:20.807Z,0
2018-12-26T03:56:21.782Z,0
2018-12-26T03:57:22.458Z,0
2018-12-26T03:58:23.677Z,0
2018-12-26T03:59:23.641Z,0
2018-12-26T04:00:25.443Z,0
2018-12-26T04:01:25.402Z,0
2018-12-26T04:02:26.919Z,0
2018-12-26T04:03:28.163Z,0
2018-12-26T04:04:28.120Z,0
2018-12-26T04:05:28.803Z,0
2018-12-26T04:06:29.538Z,0
2018-12-26T04:07:29.818Z,0
2018-12-26T04:08:30.479Z,0
2018-12-26T04:09:30.725Z,0
2018-12-26T04:10:31.242Z,0
2018-12-26T04:11:32.223Z,0
2018-12-26T04:12:33.526Z,0
2018-12-26T04:13:34.042Z,0
2018-12-26T04:14:34.281Z,0
2018-12-26T04:15:34.536Z,0
2018-12-26T04:16:35.494Z,0
2018-12-26T04:17:35.910Z,0
2018-12-26T04:18:37.581Z,0
2018-12-26T04:19:38.543Z,0
2018-12-26T04:20:39.290Z,0
2018-12-26T04:21:39.428Z,0
2018-12-26T04:22:41.109Z,0
2018-12-26T04:23:41.623Z,0
2018-12-26T04:24:42.082Z,0
2018-12-26T04:25:42.767Z,0
2018-12-26T04:26:43.471Z,0
2018-12-26T04:27:44.433Z,0
2018-12-26T04:28:45.248Z,0
2018-12-26T04:29:45.929Z,0
2018-12-26T04:30:46.909Z,0
2018-12-26T04:31:46.896Z,0
2018-12-26T04:32:48.135Z,0
2018-12-26T04:33:48.395Z,0
2018-12-26T04:34:49.090Z,0
2018-12-26T04:35:50.132Z,0
2018-12-26T04:36:50.545Z,0
2018-12-26T04:37:51.506Z,0
2018-12-26T04:38:52.885Z,0
2018-12-26T04:39:53.845Z,0
2018-12-26T04:40:54.248Z,0
2018-12-26T04:41:54.656Z,0
2018-12-26T04:42:55.894Z,0
2018-12-26T04:43:56.670Z,0
2018-12-26T04:44:57.349Z,0
2018-12-26T04:45:58.341Z,0
2018-12-26T04:46:59.588Z,0
2018-12-26T04:48:01.156Z,0
2018-12-26T04:49:01.817Z,0
2018-12-26T04:50:02.802Z,0
2018-12-26T04:51:03.318Z,0
2018-12-26T04:52:04.562Z,0
2018-12-26T04:53:04.807Z,0
2018-12-26T04:54:06.053Z,0
2018-12-26T04:55:06.741Z,0
2018-12-26T04:56:07.436Z,0
2018-12-26T04:57:08.193Z,0
2018-12-26T04:58:09.437Z,0
2018-12-26T04:59:09.255Z,0
2018-12-26T05:00:10.072Z,0
2018-12-26T05:01:10.768Z,0
2018-12-26T05:02:11.451Z,0
2018-12-26T05:03:12.132Z,0
2018-12-26T05:04:12.294Z,0
2018-12-26T05:05:13.542Z,0
2018-12-26T05:06:14.505Z,0
2018-12-26T05:07:15.188Z,0
2018-12-26T05:08:16.153Z,0
2018-12-26T05:09:16.682Z,0
2018-12-26T05:10:17.919Z,0
2018-12-26T05:11:18.438Z,0
2018-12-26T05:12:18.842Z,0
2018-12-26T05:13:18.969Z,0
2018-12-26T05:14:19.647Z,0
2018-12-26T05:15:20.435Z,0
2018-12-26T05:16:21.840Z,0
2018-12-26T05:17:22.524Z,0
2018-12-26T05:18:22.925Z,0
2018-12-26T05:19:23.892Z,0
2018-12-26T05:20:24.856Z,0
2018-12-26T05:21:25.540Z,0
2018-12-26T05:22:26.225Z,0
2018-12-26T05:23:28.188Z,0
2018-12-26T05:24:29.151Z,0
2018-12-26T05:25:29.317Z,0
2018-12-26T05:26:30.560Z,0
2018-12-26T05:27:35.974Z,0
2018-12-26T05:28:36.941Z,0
2018-12-26T05:29:37.439Z,0
2018-12-26T05:30:38.227Z,0
2018-12-26T05:31:38.907Z,0
2018-12-26T05:32:40.151Z,0
2018-12-26T05:33:40.279Z,0
2018-12-26T05:34:41.700Z,0
2018-12-26T05:35:43.208Z,0
2018-12-26T05:36:44.444Z,0
2018-12-26T05:37:44.575Z,0
2018-12-26T05:38:46.262Z,0
2018-12-26T05:39:46.791Z,0
2018-12-26T05:40:47.753Z,0
2018-12-26T05:41:48.162Z,0
2018-12-26T05:42:48.564Z,0
2018-12-26T05:43:49.607Z,0
2018-12-26T05:44:50.007Z,0
2018-12-26T05:45:51.693Z,0
2018-12-26T05:46:52.379Z,0
2018-12-26T05:47:53.057Z,0
2018-12-26T05:48:53.187Z,0
2018-12-26T05:49:54.378Z,0
2018-12-26T05:50:55.067Z,0
2018-12-26T05:51:55.752Z,0
2018-12-26T05:52:56.873Z,0
2018-12-26T05:53:58.113Z,0
2018-12-26T05:54:59.071Z,0
2018-12-26T05:56:00.030Z,0
2018-12-26T05:57:00.154Z,0
2018-12-26T05:58:01.109Z,0
2018-12-26T05:59:01.512Z,0
2018-12-26T06:00:02.339Z,0
2018-12-26T06:01:03.021Z,0
2018-12-26T06:02:03.802Z,0
2018-12-26T06:03:03.930Z,0
2018-12-26T06:04:05.335Z,0
2018-12-26T06:05:06.301Z,0
2018-12-26T06:06:06.704Z,0
2018-12-26T06:07:06.833Z,0
2018-12-26T06:08:07.795Z,0
2018-12-26T06:09:08.196Z,0
2018-12-26T06:10:09.040Z,0
2018-12-26T06:11:09.725Z,0
2018-12-26T06:12:12.259Z,0
2018-12-26T06:13:10.976Z,0
2018-12-26T06:14:11.378Z,0
2018-12-26T06:15:13.057Z,0
2018-12-26T06:16:14.292Z,0
2018-12-26T06:17:15.253Z,0
2018-12-26T06:18:15.934Z,0
2018-12-26T06:19:16.617Z,0
2018-12-26T06:20:17.477Z,0
2018-12-26T06:21:17.989Z,0
2018-12-26T06:22:19.225Z,0
2018-12-26T06:23:19.548Z,0
2018-12-26T06:24:19.230Z,0
2018-12-26T06:25:20.205Z,0
2018-12-26T06:26:20.396Z,4
2018-12-26T06:27:21.436Z,4
2018-12-26T06:28:23.125Z,4
2018-12-26T06:29:23.530Z,4
2018-12-26T06:30:24.640Z,4
2018-12-26T06:31:25.045Z,0
2018-12-26T06:32:25.530Z,4
2018-12-26T06:33:26.493Z,4
2018-12-26T06:34:27.167Z,8
2018-12-26T06:35:27.893Z,4
2018-12-26T06:36:28.026Z,8
2018-12-26T06:37:29.432Z,8
2018-12-26T06:38:30.205Z,8
2018-12-26T06:39:30.613Z,12
2018-12-26T06:40:31.719Z,12
2018-12-26T06:41:32.679Z,12
2018-12-26T06:42:33.157Z,16
2018-12-26T06:43:33.281Z,16
2018-12-26T06:44:34.411Z,24
2018-12-26T06:45:35.540Z,28
2018-12-26T06:46:36.665Z,32
2018-12-26T06:47:37.349Z,36
2018-12-26T06:48:38.033Z,44
2018-12-26T06:49:38.720Z,52
2018-12-26T06:50:39.830Z,60
2018-12-26T06:51:41.121Z,68
2018-12-26T06:52:41.617Z,80
2018-12-26T06:53:42.023Z,88
2018-12-26T06:54:42.207Z,96
2018-12-26T06:55:44.176Z,108
2018-12-26T06:56:43.854Z,124
2018-12-26T06:57:45.263Z,132
2018-12-26T06:58:45.945Z,148
2018-12-26T06:59:46.355Z,164
2018-12-26T07:00:48.035Z,180
2018-12-26T07:01:48.441Z,196
2018-12-26T07:02:49.126Z,212
2018-12-26T07:03:50.371Z,228
2018-12-26T07:04:50.424Z,248
2018-12-26T07:05:50.551Z,264
2018-12-26T07:06:50.955Z,284
2018-12-26T07:07:52.363Z,304
2018-12-26T07:08:53.047Z,324
2018-12-26T07:09:53.452Z,344
2018-12-26T07:10:53.711Z,368
2018-12-26T07:11:55.210Z,388
2018-12-26T07:12:55.897Z,408
2018-12-26T07:13:56.029Z,436
2018-12-26T07:14:56.433Z,460
2018-12-26T07:15:57.841Z,488
2018-12-26T07:16:58.806Z,516
2018-12-26T07:17:59.593Z,548
2018-12-26T07:19:00.722Z,576
2018-12-26T07:20:02.130Z,608
2018-12-26T07:21:02.385Z,640
2018-12-26T07:22:03.423Z,672
2018-12-26T07:23:04.459Z,704
2018-12-26T07:24:04.867Z,728
2018-12-26T07:25:06.552Z,760
2018-12-26T07:26:07.237Z,780
2018-12-26T07:27:08.203Z,804
2018-12-26T07:28:11.322Z,836
2018-12-26T07:29:12.560Z,868
2018-12-26T07:30:12.689Z,900
2018-12-26T07:31:13.794Z,928
2018-12-26T07:32:14.479Z,956
2018-12-26T07:33:14.886Z,972
2018-12-26T07:34:15.574Z,984
2018-12-26T07:35:17.257Z,1008
2018-12-26T07:36:17.776Z,1032
2018-12-26T07:37:18.184Z,1056
2018-12-26T07:38:19.317Z,1072
2018-12-26T07:39:20.288Z,1092
2018-12-26T07:40:20.975Z,1124
2018-12-26T07:41:22.172Z,1160
2018-12-26T07:42:22.578Z,1184
2018-12-26T07:43:23.822Z,1184
2018-12-26T07:44:24.791Z,1188
2018-12-26T07:45:25.850Z,1200
2018-12-26T07:46:26.537Z,1220
2018-12-26T07:47:26.671Z,1236
2018-12-26T07:48:30.159Z,1260
2018-12-26T07:49:28.291Z,3680
2018-12-26T07:50:28.977Z,12608
2018-12-26T07:51:29.613Z,26240
2018-12-26T07:52:31.027Z,27808
2018-12-26T07:53:32.160Z,33760
2018-12-26T07:54:32.847Z,19200
2018-12-26T07:55:33.537Z,11828
2018-12-26T07:56:34.947Z,12504
2018-12-26T07:57:35.639Z,11112
2018-12-26T07:58:36.642Z,9336
2018-12-26T07:59:39.530Z,9528
2018-12-26T08:00:40.667Z,5768
2018-12-26T08:01:42.055Z,2872
2018-12-26T08:02:42.564Z,2376
2018-12-26T08:03:43.530Z,2368
2018-12-26T08:04:44.500Z,3788
2018-12-26T08:05:44.911Z,6228
2018-12-26T08:06:45.322Z,7312
2018-12-26T08:07:45.733Z,8048
2018-12-26T08:08:46.977Z,7260
2018-12-26T08:09:47.390Z,6004
2018-12-26T08:10:48.799Z,4176
2018-12-26T08:11:49.664Z,2608
2018-12-26T08:12:50.081Z,2400
2018-12-26T08:13:51.323Z,2392
2018-12-26T08:14:52.290Z,2392
2018-12-26T08:15:52.425Z,2384
2018-12-26T08:16:54.997Z,2400
2018-12-26T08:17:55.406Z,3248
2018-12-26T08:18:56.374Z,14060
2018-12-26T08:19:56.788Z,20032
2018-12-26T08:20:57.573Z,19136
2018-12-26T08:21:57.510Z,18784
2018-12-26T08:22:58.924Z,18336
2018-12-26T08:24:00.169Z,25760
2018-12-26T08:25:01.027Z,30752
2018-12-26T08:26:01.449Z,15520
2018-12-26T08:27:02.141Z,4868
2018-12-26T08:28:02.834Z,2656
2018-12-26T08:29:03.601Z,2608
2018-12-26T08:30:04.584Z,2588
2018-12-26T08:31:05.307Z,2580
2018-12-26T08:32:06.430Z,2552
2018-12-26T08:33:06.567Z,2560
2018-12-26T08:34:07.702Z,2592
2018-12-26T08:35:09.122Z,3576
2018-12-26T08:36:10.368Z,4800
2018-12-26T08:37:09.501Z,6468
2018-12-26T08:38:09.914Z,14260
2018-12-26T08:39:10.331Z,30464
2018-12-26T08:40:11.577Z,22848
2018-12-26T08:41:12.267Z,12076
2018-12-26T08:42:13.411Z,10452
2018-12-26T08:43:14.111Z,28384
2018-12-26T08:44:15.076Z,31520
2018-12-26T08:45:15.765Z,22304
2018-12-26T08:46:16.178Z,12816
2018-12-26T08:47:17.233Z,5896
2018-12-26T08:48:17.923Z,8572
2018-12-26T08:49:18.612Z,8584
2018-12-26T08:50:19.311Z,11776
2018-12-26T08:51:20.002Z,10304
2018-12-26T08:52:20.671Z,16416
2018-12-26T08:53:21.363Z,22912
2018-12-26T08:54:22.770Z,17760
2018-12-26T08:55:23.183Z,7316
2018-12-26T08:56:24.152Z,3176
2018-12-26T08:57:24.842Z,9348
2018-12-26T08:58:25.360Z,13264
2018-12-26T08:58:37.302Z,14576
2018-12-26T08:59:38.195Z,25792
2018-12-26T09:00:39.079Z,28544
2018-12-26T09:01:39.520Z,29728
2018-12-26T09:02:39.931Z,18240
2018-12-26T09:03:40.064Z,5552
2018-12-26T09:04:41.198Z,3124
2018-12-26T09:05:42.327Z,3112
2018-12-26T09:06:43.741Z,4808
2018-12-26T09:07:43.876Z,11432
2018-12-26T09:08:45.565Z,9260
2018-12-26T09:09:45.802Z,5476
2018-12-26T09:10:46.214Z,11440
2018-12-26T09:11:46.627Z,14044
2018-12-26T09:12:47.875Z,16288
2018-12-26T09:13:48.292Z,23488
2018-12-26T09:14:49.432Z,31424
2018-12-26T09:15:51.213Z,31616
2018-12-26T09:16:52.181Z,20352
2018-12-26T09:17:52.683Z,18528
2018-12-26T09:18:54.365Z,29280
2018-12-26T09:19:54.026Z,22432
2018-12-26T09:20:55.563Z,13212
2018-12-26T09:21:55.973Z,6648
2018-12-26T09:22:57.664Z,4652
2018-12-26T09:23:57.800Z,9336
2018-12-26T09:24:59.216Z,19040
2018-12-26T09:25:59.905Z,20832
2018-12-26T09:27:01.154Z,21280
2018-12-26T09:28:01.675Z,18080
2018-12-26T09:29:05.685Z,14404
2018-12-26T09:29:19.672Z,13380
2018-12-26T09:30:16.176Z,7360
2018-12-26T09:31:16.587Z,5340
2018-12-26T09:32:16.999Z,6032
2018-12-26T09:33:18.128Z,8876
2018-12-26T09:34:20.869Z,23040
2018-12-26T09:35:22.385Z,33440
2018-12-26T09:36:21.416Z,45568
2018-12-26T09:37:21.680Z,55808
2018-12-26T09:38:22.388Z,61152
2018-12-26T09:39:22.806Z,67712
2018-12-26T09:40:23.071Z,70848
2018-12-26T09:41:24.320Z,72288
2018-12-26T09:42:25.575Z,71648
2018-12-26T09:43:30.284Z,43264
2018-12-26T09:43:43.184Z,38944
2018-12-26T09:43:55.261Z,33824
2018-12-26T09:44:56.821Z,25824
2018-12-26T09:45:57.051Z,46144
2018-12-26T09:46:58.304Z,51488
2018-12-26T09:47:59.295Z,55168
2018-12-26T09:48:59.720Z,45056
2018-12-26T09:50:00.686Z,16928
2018-12-26T09:51:01.207Z,8320
2018-12-26T09:52:01.619Z,13880
2018-12-26T09:53:02.034Z,26144
2018-12-26T09:54:03.175Z,34496
2018-12-26T09:55:08.670Z,28640
2018-12-26T09:56:06.643Z,39104
2018-12-26T09:57:07.060Z,43712
2018-12-26T09:58:08.031Z,21728
2018-12-26T09:59:08.724Z,26016
2018-12-26T10:00:09.141Z,50080
2018-12-26T10:01:09.837Z,38080
2018-12-26T10:02:10.263Z,16480
2018-12-26T10:03:11.700Z,7976
2018-12-26T10:04:12.397Z,28064
2018-12-26T10:05:12.944Z,36000
2018-12-26T10:06:13.918Z,26208
2018-12-26T10:07:14.337Z,17152
2018-12-26T10:08:15.585Z,18496
2018-12-26T10:09:20.042Z,36032
2018-12-26T10:09:30.488Z,39488
2018-12-26T10:10:30.585Z,52544
2018-12-26T10:11:31.581Z,59744
2018-12-26T10:12:32.552Z,65440
2018-12-26T10:13:33.522Z,67072
2018-12-26T10:14:33.590Z,66784
2018-12-26T10:15:34.285Z,61920
2018-12-26T10:16:34.704Z,59872
2018-12-26T10:17:36.497Z,66752
2018-12-26T10:18:37.195Z,72096
2018-12-26T10:19:37.991Z,71200
2018-12-26T10:20:38.694Z,71776
2018-12-26T10:21:39.837Z,71488
2018-12-26T10:22:40.981Z,69312
2018-12-26T10:23:43.038Z,66144
2018-12-26T10:24:43.015Z,68672
2018-12-26T10:25:43.717Z,69824
2018-12-26T10:26:45.442Z,64512
2018-12-26T10:27:45.862Z,51616
2018-12-26T10:28:47.947Z,47616
2018-12-26T10:29:54.187Z,41248
2018-12-26T10:30:05.310Z,41504
2018-12-26T10:30:17.691Z,41856
2018-12-26T10:30:30.075Z,42432
2018-12-26T10:30:42.245Z,44160
2018-12-26T10:30:52.029Z,45152
2018-12-26T10:31:49.782Z,56480
2018-12-26T10:32:51.483Z,67328
2018-12-26T10:33:51.904Z,64160
2018-12-26T10:34:52.603Z,55424
2018-12-26T10:35:52.747Z,53056
2018-12-26T10:36:53.453Z,57216
2018-12-26T10:37:53.876Z,50080
2018-12-26T10:38:54.386Z,43808
2018-12-26T10:39:54.531Z,48128
2018-12-26T10:40:55.522Z,52064
2018-12-26T10:41:56.630Z,56512
2018-12-26T10:42:57.337Z,58048
2018-12-26T10:43:57.755Z,58016
2018-12-26T10:44:58.253Z,61216
2018-12-26T10:45:58.684Z,60320
2018-12-26T10:46:59.386Z,59392
2018-12-26T10:47:59.811Z,62464
2018-12-26T10:49:00.788Z,64000
2018-12-26T10:50:01.640Z,66528
2018-12-26T10:51:02.065Z,69472
2018-12-26T10:52:03.211Z,70592
2018-12-26T10:53:03.910Z,70784
2018-12-26T10:54:04.055Z,69664
2018-12-26T10:55:04.857Z,68288
2018-12-26T10:56:05.560Z,67264
2018-12-26T10:57:06.459Z,65536
2018-12-26T10:58:07.620Z,65152
2018-12-26T10:59:11.745Z,63648
2018-12-26T11:00:14.580Z,63200
2018-12-26T11:01:13.082Z,60544
2018-12-26T11:02:13.637Z,60224
2018-12-26T11:03:14.612Z,61568
2018-12-26T11:04:15.314Z,62432
2018-12-26T11:05:15.742Z,62912
2018-12-26T11:06:17.445Z,60032
2018-12-26T11:07:18.984Z,56128
2018-12-26T11:08:18.404Z,46848
2018-12-26T11:09:19.551Z,38848
2018-12-26T11:10:20.250Z,37760
2018-12-26T11:11:20.685Z,36800
2018-12-26T11:12:20.912Z,41728
2018-12-26T11:13:21.341Z,34848
2018-12-26T11:14:22.490Z,27616
2018-12-26T11:15:23.192Z,46112
2018-12-26T11:16:23.615Z,59968
2018-12-26T11:17:23.781Z,58592
2018-12-26T11:18:24.928Z,61024
2018-12-26T11:19:25.638Z,60928
2018-12-26T11:20:26.615Z,57568
2018-12-26T11:21:27.322Z,54496
2018-12-26T11:22:33.834Z,50816
2018-12-26T11:22:45.308Z,47616
2018-12-26T11:22:57.845Z,43072
2018-12-26T11:23:09.885Z,38624
2018-12-26T11:23:18.696Z,35424
2018-12-26T11:24:18.734Z,21024
2018-12-26T11:25:18.879Z,37728
2018-12-26T11:26:19.858Z,53184
2018-12-26T11:27:20.280Z,54176
2018-12-26T11:28:21.257Z,54816
2018-12-26T11:29:21.679Z,50400
2018-12-26T11:30:27.874Z,55232
2018-12-26T11:30:39.613Z,57024
2018-12-26T11:30:51.455Z,57952
2018-12-26T11:31:48.155Z,59360
2018-12-26T11:32:49.309Z,34848
2018-12-26T11:33:49.896Z,21824
2018-12-26T11:34:50.593Z,23584
2018-12-26T11:35:50.735Z,8324
2018-12-26T11:36:51.714Z,5280
2018-12-26T11:37:52.413Z,13828
2018-12-26T11:38:52.392Z,42624
2018-12-26T11:39:53.814Z,50112
2018-12-26T11:40:54.515Z,26688
2018-12-26T11:41:55.907Z,8164
2018-12-26T11:42:56.727Z,5092
2018-12-26T11:43:56.702Z,5024
2018-12-26T11:44:57.403Z,21344
2018-12-26T11:45:58.179Z,46784
2018-12-26T11:46:58.640Z,50272
2018-12-26T11:48:00.061Z,49248
2018-12-26T11:49:00.482Z,45792
2018-12-26T11:50:02.473Z,23360
2018-12-26T11:51:03.773Z,9228
2018-12-26T11:52:04.046Z,27808
2018-12-26T11:53:05.467Z,31328
2018-12-26T11:54:06.174Z,26752
2018-12-26T11:55:06.877Z,28128
2018-12-26T11:56:07.147Z,21824
2018-12-26T11:57:08.569Z,11344
2018-12-26T11:58:10.104Z,15424
2018-12-26T11:59:09.245Z,21824
2018-12-26T12:00:16.440Z,23392
2018-12-26T12:00:28.330Z,24800
2018-12-26T12:00:41.589Z,26176
2018-12-26T12:00:52.800Z,26240
2018-12-26T12:01:05.116Z,25280
2018-12-26T12:01:15.651Z,23904
2018-12-26T12:02:26.476Z,12152
2018-12-26T12:03:27.857Z,12628
2018-12-26T12:04:28.379Z,19264
2018-12-26T12:05:29.357Z,17696
2018-12-26T12:06:30.053Z,18240
2018-12-26T12:07:30.779Z,20832
2018-12-26T12:08:31.921Z,22528
2018-12-26T12:09:33.061Z,29888
2018-12-26T12:10:34.480Z,38496
2018-12-26T12:11:35.196Z,38240
2018-12-26T12:12:36.224Z,36992
2018-12-26T12:13:36.496Z,34848
2018-12-26T12:14:37.247Z,33568
2018-12-26T12:15:37.946Z,34048
2018-12-26T12:16:38.186Z,30144
2018-12-26T12:17:39.253Z,28864
2018-12-26T12:18:40.233Z,28800
2018-12-26T12:19:41.311Z,32992
2018-12-26T12:20:41.733Z,38720
2018-12-26T12:21:42.710Z,39296
2018-12-26T12:22:43.525Z,38304
2018-12-26T12:23:44.163Z,26208
2018-12-26T12:24:44.582Z,16352
2018-12-26T12:25:45.011Z,20800
2018-12-26T12:26:45.989Z,21504
2018-12-26T12:27:46.690Z,24672
2018-12-26T12:28:47.391Z,23520
2018-12-26T12:29:52.905Z,25504
2018-12-26T12:30:04.608Z,25664
2018-12-26T12:31:06.796Z,27328
2018-12-26T12:31:16.891Z,27616
2018-12-26T12:32:15.949Z,32896
2018-12-26T12:33:17.328Z,32896
2018-12-26T12:34:17.752Z,32192
2018-12-26T12:35:19.451Z,34496
2018-12-26T12:36:20.430Z,36384
2018-12-26T12:37:21.130Z,34336
2018-12-26T12:38:22.404Z,32288
2018-12-26T12:39:22.829Z,34816
2018-12-26T12:40:24.251Z,36192
2018-12-26T12:41:25.951Z,31360
2018-12-26T12:42:26.528Z,27744
2018-12-26T12:43:27.509Z,30272
2018-12-26T12:44:29.065Z,28000
2018-12-26T12:45:30.604Z,21280
2018-12-26T12:46:30.859Z,18720
2018-12-26T12:47:31.285Z,18144
2018-12-26T12:48:31.706Z,18656
2018-12-26T12:49:32.404Z,11388
2018-12-26T12:50:32.832Z,8484
2018-12-26T12:51:33.537Z,11176
2018-12-26T12:52:34.199Z,15296
2018-12-26T12:53:34.342Z,12464
2018-12-26T12:54:35.321Z,11412
2018-12-26T12:55:35.578Z,13452
2018-12-26T12:56:35.999Z,16032
2018-12-26T12:57:37.977Z,18208
2018-12-26T12:58:37.959Z,18592
2018-12-26T12:59:50.749Z,17600
2018-12-26T13:00:50.726Z,13220
2018-12-26T13:01:51.149Z,12836
2018-12-26T13:03:03.015Z,20864
2018-12-26T13:04:03.563Z,26272
2018-12-26T13:05:04.985Z,25696
2018-12-26T13:06:05.406Z,23328
2018-12-26T13:07:06.618Z,20352
2018-12-26T13:08:08.670Z,19808
2018-12-26T13:09:08.091Z,19232
2018-12-26T13:10:09.344Z,14304
2018-12-26T13:11:09.487Z,11024
2018-12-26T13:12:10.632Z,10460
2018-12-26T13:13:11.608Z,13308
2018-12-26T13:14:12.396Z,15520
2018-12-26T13:15:14.520Z,11864
2018-12-26T13:16:13.585Z,9876
2018-12-26T13:17:14.284Z,12804
2018-12-26T13:18:14.702Z,11468
2018-12-26T13:19:16.230Z,11532
2018-12-26T13:20:16.657Z,13568
2018-12-26T13:21:17.379Z,12504
2018-12-26T13:22:18.805Z,10748
2018-12-26T13:23:18.947Z,8848
2018-12-26T13:24:19.823Z,9808
2018-12-26T13:25:20.247Z,12196
2018-12-26T13:26:26.560Z,12536
2018-12-26T13:26:33.707Z,12456
2018-12-26T13:27:34.167Z,12120
2018-12-26T13:28:34.864Z,12264
2018-12-26T13:29:35.009Z,13856
2018-12-26T13:30:39.775Z,14304
2018-12-26T13:31:37.557Z,13952
2018-12-26T13:32:42.812Z,13632
2018-12-26T13:32:54.464Z,13440
2018-12-26T13:33:06.943Z,13248
2018-12-26T13:33:17.371Z,13120
2018-12-26T13:34:14.287Z,12284
2018-12-26T13:35:14.988Z,13376
2018-12-26T13:36:21.430Z,12408
2018-12-26T13:36:32.001Z,12120
2018-12-26T13:36:43.832Z,11724
2018-12-26T13:36:56.196Z,11088
2018-12-26T13:37:52.132Z,10128